sensor_id;sensor_type;location;lat;lon;timestamp;P1;durP1;ratioP1;P2;durP2;ratioP2
19018;SDS011;9642;50.842;4.348;2022-07-21T00:02:08;19.75;;;14.02;;
19018;SDS011;9642;50.842;4.348;2022-07-21T00:04:34;19.00;;;14.63;;
19018;SDS011;9642;50.842;4.348;2022-07-21T00:07:03;16.02;;;14.32;;
19018;SDS011;9642;50.842;4.348;2022-07-21T00:09:28;17.02;;;13.38;;
19018;SDS011;9642;50.842;4.348;2022-07-21T00:12:02;15.80;;;13.95;;
19018;SDS011;9642;50.842;4.348;2022-07-21T00:14:28;15.02;;;13.43;;
19018;SDS011;9642;50.842;4.348;2022-07-21T00:16:54;16.00;;;12.93;;
19018;SDS011;9642;50.842;4.348;2022-07-21T00:19:22;17.23;;;14.20;;
19018;SDS011;9642;50.842;4.348;2022-07-21T00:21:50;18.75;;;13.43;;
19018;SDS011;9642;50.842;4.348;2022-07-21T00:24:16;14.35;;;12.82;;
19018;SDS011;9642;50.842;4.348;2022-07-21T00:26:43;15.10;;;13.00;;
19018;SDS011;9642;50.842;4.348;2022-07-21T00:29:10;15.90;;;12.80;;
19018;SDS011;9642;50.842;4.348;2022-07-21T00:31:39;14.63;;;13.05;;
19018;SDS011;9642;50.842;4.348;2022-07-21T00:34:04;15.25;;;12.00;;
19018;SDS011;9642;50.842;4.348;2022-07-21T00:36:30;16.35;;;12.88;;
19018;SDS011;9642;50.842;4.348;2022-07-21T00:38:56;15.77;;;12.80;;
19018;SDS011;9642;50.842;4.348;2022-07-21T00:41:22;17.83;;;13.55;;
19018;SDS011;9642;50.842;4.348;2022-07-21T00:43:48;16.95;;;13.82;;
19018;SDS011;9642;50.842;4.348;2022-07-21T00:46:14;14.82;;;13.27;;
19018;SDS011;9642;50.842;4.348;2022-07-21T00:48:40;15.55;;;13.95;;
19018;SDS011;9642;50.842;4.348;2022-07-21T00:51:06;17.70;;;13.93;;
19018;SDS011;9642;50.842;4.348;2022-07-21T00:53:32;18.40;;;13.95;;
19018;SDS011;9642;50.842;4.348;2022-07-21T00:55:58;16.85;;;14.40;;
19018;SDS011;9642;50.842;4.348;2022-07-21T00:58:24;16.87;;;14.43;;
19018;SDS011;9642;50.842;4.348;2022-07-21T01:00:51;17.52;;;15.15;;
19018;SDS011;9642;50.842;4.348;2022-07-21T01:03:17;17.17;;;14.38;;
19018;SDS011;9642;50.842;4.348;2022-07-21T01:05:43;16.95;;;15.05;;
19018;SDS011;9642;50.842;4.348;2022-07-21T01:08:10;16.35;;;14.02;;
19018;SDS011;9642;50.842;4.348;2022-07-21T01:10:37;19.45;;;14.52;;
19018;SDS011;9642;50.842;4.348;2022-07-21T01:13:04;18.37;;;14.65;;
19018;SDS011;9642;50.842;4.348;2022-07-21T01:15:30;16.55;;;14.38;;
19018;SDS011;9642;50.842;4.348;2022-07-21T01:17:56;18.15;;;13.38;;
19018;SDS011;9642;50.842;4.348;2022-07-21T01:20:23;18.15;;;14.10;;
19018;SDS011;9642;50.842;4.348;2022-07-21T01:22:51;15.57;;;13.25;;
19018;SDS011;9642;50.842;4.348;2022-07-21T01:25:18;17.50;;;14.87;;
19018;SDS011;9642;50.842;4.348;2022-07-21T01:27:45;15.18;;;13.55;;
19018;SDS011;9642;50.842;4.348;2022-07-21T01:30:12;17.77;;;14.65;;
19018;SDS011;9642;50.842;4.348;2022-07-21T01:32:39;20.65;;;13.80;;
19018;SDS011;9642;50.842;4.348;2022-07-21T01:35:06;16.45;;;13.68;;
19018;SDS011;9642;50.842;4.348;2022-07-21T01:37:35;15.88;;;13.70;;
19018;SDS011;9642;50.842;4.348;2022-07-21T01:40:03;17.23;;;13.23;;
19018;SDS011;9642;50.842;4.348;2022-07-21T01:42:52;17.42;;;12.98;;
19018;SDS011;9642;50.842;4.348;2022-07-21T01:45:20;19.87;;;12.32;;
19018;SDS011;9642;50.842;4.348;2022-07-21T01:47:47;15.00;;;12.45;;
19018;SDS011;9642;50.842;4.348;2022-07-21T01:50:14;18.92;;;12.68;;
19018;SDS011;9642;50.842;4.348;2022-07-21T01:52:42;19.25;;;12.63;;
19018;SDS011;9642;50.842;4.348;2022-07-21T01:55:08;17.95;;;12.93;;
19018;SDS011;9642;50.842;4.348;2022-07-21T01:57:34;18.52;;;12.77;;
19018;SDS011;9642;50.842;4.348;2022-07-21T02:00:00;16.70;;;13.15;;
19018;SDS011;9642;50.842;4.348;2022-07-21T02:02:32;16.48;;;12.30;;
19018;SDS011;9642;50.842;4.348;2022-07-21T02:04:58;15.38;;;13.10;;
19018;SDS011;9642;50.842;4.348;2022-07-21T02:07:23;18.73;;;13.02;;
19018;SDS011;9642;50.842;4.348;2022-07-21T02:09:49;18.02;;;13.30;;
19018;SDS011;9642;50.842;4.348;2022-07-21T02:12:15;15.63;;;12.88;;
19018;SDS011;9642;50.842;4.348;2022-07-21T02:14:41;17.37;;;13.70;;
19018;SDS011;9642;50.842;4.348;2022-07-21T02:17:07;16.17;;;13.40;;
19018;SDS011;9642;50.842;4.348;2022-07-21T02:19:33;18.55;;;13.90;;
19018;SDS011;9642;50.842;4.348;2022-07-21T02:21:59;16.48;;;12.07;;
19018;SDS011;9642;50.842;4.348;2022-07-21T02:24:25;12.57;;;11.23;;
19018;SDS011;9642;50.842;4.348;2022-07-21T02:26:58;18.85;;;12.05;;
19018;SDS011;9642;50.842;4.348;2022-07-21T02:29:24;16.58;;;11.90;;
19018;SDS011;9642;50.842;4.348;2022-07-21T02:31:50;14.65;;;11.63;;
19018;SDS011;9642;50.842;4.348;2022-07-21T02:34:18;18.52;;;11.68;;
19018;SDS011;9642;50.842;4.348;2022-07-21T02:36:43;16.62;;;12.23;;
19018;SDS011;9642;50.842;4.348;2022-07-21T02:39:10;15.57;;;11.82;;
19018;SDS011;9642;50.842;4.348;2022-07-21T02:41:38;17.45;;;12.05;;
19018;SDS011;9642;50.842;4.348;2022-07-21T02:44:04;13.38;;;11.38;;
19018;SDS011;9642;50.842;4.348;2022-07-21T02:46:30;15.68;;;12.18;;
19018;SDS011;9642;50.842;4.348;2022-07-21T02:48:56;17.65;;;11.82;;
19018;SDS011;9642;50.842;4.348;2022-07-21T02:51:21;16.67;;;11.23;;
19018;SDS011;9642;50.842;4.348;2022-07-21T02:53:50;13.73;;;11.00;;
19018;SDS011;9642;50.842;4.348;2022-07-21T02:56:15;16.70;;;11.73;;
19018;SDS011;9642;50.842;4.348;2022-07-21T02:58:41;15.48;;;10.85;;
19018;SDS011;9642;50.842;4.348;2022-07-21T03:01:08;13.23;;;10.20;;
19018;SDS011;9642;50.842;4.348;2022-07-21T03:03:35;14.82;;;9.57;;
19018;SDS011;9642;50.842;4.348;2022-07-21T03:06:02;12.98;;;9.13;;
19018;SDS011;9642;50.842;4.348;2022-07-21T03:08:30;13.18;;;9.13;;
19018;SDS011;9642;50.842;4.348;2022-07-21T03:10:56;15.55;;;9.30;;
19018;SDS011;9642;50.842;4.348;2022-07-21T03:13:22;18.85;;;8.45;;
19018;SDS011;9642;50.842;4.348;2022-07-21T03:15:49;13.18;;;8.88;;
19018;SDS011;9642;50.842;4.348;2022-07-21T03:18:15;14.07;;;8.18;;
19018;SDS011;9642;50.842;4.348;2022-07-21T03:20:42;19.05;;;9.25;;
19018;SDS011;9642;50.842;4.348;2022-07-21T03:23:09;14.38;;;8.60;;
19018;SDS011;9642;50.842;4.348;2022-07-21T03:25:35;14.95;;;8.07;;
19018;SDS011;9642;50.842;4.348;2022-07-21T03:28:01;15.00;;;8.38;;
19018;SDS011;9642;50.842;4.348;2022-07-21T03:30:28;12.55;;;7.53;;
19018;SDS011;9642;50.842;4.348;2022-07-21T03:32:57;16.02;;;10.90;;
19018;SDS011;9642;50.842;4.348;2022-07-21T03:35:23;16.77;;;8.77;;
19018;SDS011;9642;50.842;4.348;2022-07-21T03:37:53;13.98;;;7.75;;
19018;SDS011;9642;50.842;4.348;2022-07-21T03:40:29;13.68;;;7.57;;
19018;SDS011;9642;50.842;4.348;2022-07-21T03:42:58;14.05;;;7.90;;
19018;SDS011;9642;50.842;4.348;2022-07-21T03:45:26;14.15;;;7.47;;
19018;SDS011;9642;50.842;4.348;2022-07-21T03:47:56;12.20;;;8.10;;
19018;SDS011;9642;50.842;4.348;2022-07-21T03:50:26;13.60;;;7.82;;
19018;SDS011;9642;50.842;4.348;2022-07-21T03:52:52;11.57;;;8.00;;
19018;SDS011;9642;50.842;4.348;2022-07-21T03:55:18;12.10;;;7.85;;
19018;SDS011;9642;50.842;4.348;2022-07-21T03:57:50;16.20;;;9.15;;
19018;SDS011;9642;50.842;4.348;2022-07-21T04:00:21;17.55;;;9.63;;
19018;SDS011;9642;50.842;4.348;2022-07-21T04:02:50;16.52;;;10.50;;
19018;SDS011;9642;50.842;4.348;2022-07-21T04:05:16;16.80;;;10.45;;
19018;SDS011;9642;50.842;4.348;2022-07-21T04:07:44;13.98;;;10.18;;
19018;SDS011;9642;50.842;4.348;2022-07-21T04:10:12;17.92;;;10.65;;
19018;SDS011;9642;50.842;4.348;2022-07-21T04:12:39;19.90;;;11.07;;
19018;SDS011;9642;50.842;4.348;2022-07-21T04:15:05;13.82;;;10.02;;
19018;SDS011;9642;50.842;4.348;2022-07-21T04:17:32;15.50;;;10.38;;
19018;SDS011;9642;50.842;4.348;2022-07-21T04:19:59;14.70;;;11.27;;
19018;SDS011;9642;50.842;4.348;2022-07-21T04:22:24;19.92;;;11.20;;
19018;SDS011;9642;50.842;4.348;2022-07-21T04:24:52;20.10;;;11.73;;
19018;SDS011;9642;50.842;4.348;2022-07-21T04:27:18;19.83;;;12.25;;
19018;SDS011;9642;50.842;4.348;2022-07-21T04:29:44;16.20;;;11.15;;
19018;SDS011;9642;50.842;4.348;2022-07-21T04:32:10;18.98;;;12.45;;
19018;SDS011;9642;50.842;4.348;2022-07-21T04:34:38;19.62;;;12.10;;
19018;SDS011;9642;50.842;4.348;2022-07-21T04:37:07;18.00;;;12.90;;
19018;SDS011;9642;50.842;4.348;2022-07-21T04:39:34;19.33;;;12.23;;
19018;SDS011;9642;50.842;4.348;2022-07-21T04:41:59;18.37;;;12.57;;
19018;SDS011;9642;50.842;4.348;2022-07-21T04:44:25;18.02;;;13.02;;
19018;SDS011;9642;50.842;4.348;2022-07-21T04:46:52;19.05;;;13.25;;
19018;SDS011;9642;50.842;4.348;2022-07-21T04:49:17;18.33;;;13.82;;
19018;SDS011;9642;50.842;4.348;2022-07-21T04:51:43;21.25;;;13.82;;
19018;SDS011;9642;50.842;4.348;2022-07-21T04:54:10;22.13;;;13.62;;
19018;SDS011;9642;50.842;4.348;2022-07-21T04:56:43;19.37;;;13.57;;
19018;SDS011;9642;50.842;4.348;2022-07-21T04:59:09;18.42;;;12.25;;
19018;SDS011;9642;50.842;4.348;2022-07-21T05:01:36;22.13;;;13.90;;
19018;SDS011;9642;50.842;4.348;2022-07-21T05:04:04;21.42;;;13.55;;
19018;SDS011;9642;50.842;4.348;2022-07-21T05:06:32;23.83;;;14.27;;
19018;SDS011;9642;50.842;4.348;2022-07-21T05:08:59;25.90;;;15.70;;
19018;SDS011;9642;50.842;4.348;2022-07-21T05:11:31;23.50;;;16.15;;
19018;SDS011;9642;50.842;4.348;2022-07-21T05:13:57;23.62;;;14.93;;
19018;SDS011;9642;50.842;4.348;2022-07-21T05:16:23;23.40;;;16.25;;
19018;SDS011;9642;50.842;4.348;2022-07-21T05:18:49;24.45;;;16.35;;
19018;SDS011;9642;50.842;4.348;2022-07-21T05:21:15;22.70;;;16.17;;
19018;SDS011;9642;50.842;4.348;2022-07-21T05:23:41;22.75;;;15.45;;
19018;SDS011;9642;50.842;4.348;2022-07-21T05:26:07;25.58;;;16.60;;
19018;SDS011;9642;50.842;4.348;2022-07-21T05:28:33;21.65;;;16.37;;
19018;SDS011;9642;50.842;4.348;2022-07-21T05:30:59;26.60;;;16.23;;
19018;SDS011;9642;50.842;4.348;2022-07-21T05:33:25;23.73;;;16.05;;
19018;SDS011;9642;50.842;4.348;2022-07-21T05:35:50;25.85;;;17.20;;
19018;SDS011;9642;50.842;4.348;2022-07-21T05:38:16;24.45;;;17.23;;
19018;SDS011;9642;50.842;4.348;2022-07-21T05:40:42;23.25;;;16.85;;
19018;SDS011;9642;50.842;4.348;2022-07-21T05:43:08;25.20;;;16.23;;
19018;SDS011;9642;50.842;4.348;2022-07-21T05:45:34;25.83;;;17.15;;
19018;SDS011;9642;50.842;4.348;2022-07-21T05:48:00;27.60;;;17.55;;
19018;SDS011;9642;50.842;4.348;2022-07-21T05:50:26;26.95;;;18.05;;
19018;SDS011;9642;50.842;4.348;2022-07-21T05:52:52;27.33;;;18.05;;
19018;SDS011;9642;50.842;4.348;2022-07-21T05:55:18;28.40;;;16.98;;
19018;SDS011;9642;50.842;4.348;2022-07-21T05:57:44;24.02;;;17.58;;
19018;SDS011;9642;50.842;4.348;2022-07-21T06:00:10;28.17;;;19.05;;
19018;SDS011;9642;50.842;4.348;2022-07-21T06:02:36;23.77;;;18.80;;
19018;SDS011;9642;50.842;4.348;2022-07-21T06:05:02;26.08;;;19.15;;
19018;SDS011;9642;50.842;4.348;2022-07-21T06:07:28;26.92;;;18.70;;
19018;SDS011;9642;50.842;4.348;2022-07-21T06:09:54;27.02;;;19.60;;
19018;SDS011;9642;50.842;4.348;2022-07-21T06:12:20;28.87;;;18.77;;
19018;SDS011;9642;50.842;4.348;2022-07-21T06:14:46;25.73;;;19.73;;
19018;SDS011;9642;50.842;4.348;2022-07-21T06:17:12;25.37;;;20.17;;
19018;SDS011;9642;50.842;4.348;2022-07-21T06:19:38;31.25;;;19.87;;
19018;SDS011;9642;50.842;4.348;2022-07-21T06:22:03;28.20;;;20.27;;
19018;SDS011;9642;50.842;4.348;2022-07-21T06:24:30;33.63;;;21.98;;
19018;SDS011;9642;50.842;4.348;2022-07-21T06:26:55;29.15;;;21.08;;
19018;SDS011;9642;50.842;4.348;2022-07-21T06:29:22;32.70;;;22.75;;
19018;SDS011;9642;50.842;4.348;2022-07-21T06:31:49;27.77;;;22.30;;
19018;SDS011;9642;50.842;4.348;2022-07-21T06:34:15;30.17;;;22.73;;
19018;SDS011;9642;50.842;4.348;2022-07-21T06:36:41;30.98;;;23.12;;
19018;SDS011;9642;50.842;4.348;2022-07-21T06:39:07;33.85;;;23.20;;
19018;SDS011;9642;50.842;4.348;2022-07-21T06:41:33;35.42;;;23.55;;
19018;SDS011;9642;50.842;4.348;2022-07-21T06:44:05;36.35;;;23.58;;
19018;SDS011;9642;50.842;4.348;2022-07-21T06:46:33;37.90;;;25.15;;
19018;SDS011;9642;50.842;4.348;2022-07-21T06:48:59;40.47;;;26.70;;
19018;SDS011;9642;50.842;4.348;2022-07-21T06:51:26;44.90;;;27.58;;
19018;SDS011;9642;50.842;4.348;2022-07-21T06:53:52;39.97;;;27.37;;
19018;SDS011;9642;50.842;4.348;2022-07-21T06:56:18;42.47;;;28.77;;
19018;SDS011;9642;50.842;4.348;2022-07-21T06:58:44;48.28;;;28.33;;
19018;SDS011;9642;50.842;4.348;2022-07-21T07:01:10;42.83;;;27.62;;
19018;SDS011;9642;50.842;4.348;2022-07-21T07:03:37;40.10;;;27.67;;
19018;SDS011;9642;50.842;4.348;2022-07-21T07:06:03;39.40;;;27.80;;
19018;SDS011;9642;50.842;4.348;2022-07-21T07:08:30;46.03;;;28.50;;
19018;SDS011;9642;50.842;4.348;2022-07-21T07:10:56;44.70;;;29.45;;
19018;SDS011;9642;50.842;4.348;2022-07-21T07:13:23;46.92;;;28.38;;
19018;SDS011;9642;50.842;4.348;2022-07-21T07:15:49;49.17;;;29.95;;
19018;SDS011;9642;50.842;4.348;2022-07-21T07:18:15;48.87;;;29.98;;
19018;SDS011;9642;50.842;4.348;2022-07-21T07:20:42;44.20;;;28.30;;
19018;SDS011;9642;50.842;4.348;2022-07-21T07:23:08;51.78;;;29.37;;
19018;SDS011;9642;50.842;4.348;2022-07-21T07:25:34;44.47;;;28.38;;
19018;SDS011;9642;50.842;4.348;2022-07-21T07:27:59;52.28;;;29.67;;
19018;SDS011;9642;50.842;4.348;2022-07-21T07:30:28;50.70;;;29.65;;
19018;SDS011;9642;50.842;4.348;2022-07-21T07:32:54;45.85;;;29.63;;
19018;SDS011;9642;50.842;4.348;2022-07-21T07:35:20;43.20;;;28.52;;
19018;SDS011;9642;50.842;4.348;2022-07-21T07:37:47;43.33;;;29.23;;
19018;SDS011;9642;50.842;4.348;2022-07-21T07:40:14;47.20;;;29.83;;
19018;SDS011;9642;50.842;4.348;2022-07-21T07:42:42;45.60;;;31.00;;
19018;SDS011;9642;50.842;4.348;2022-07-21T07:45:08;49.75;;;30.65;;
19018;SDS011;9642;50.842;4.348;2022-07-21T07:47:35;48.13;;;30.80;;
19018;SDS011;9642;50.842;4.348;2022-07-21T07:50:04;48.30;;;30.52;;
19018;SDS011;9642;50.842;4.348;2022-07-21T07:52:32;53.87;;;31.85;;
19018;SDS011;9642;50.842;4.348;2022-07-21T07:54:59;55.72;;;31.08;;
19018;SDS011;9642;50.842;4.348;2022-07-21T07:57:24;41.92;;;29.40;;
19018;SDS011;9642;50.842;4.348;2022-07-21T07:59:50;47.20;;;29.23;;
19018;SDS011;9642;50.842;4.348;2022-07-21T08:02:17;45.05;;;29.60;;
19018;SDS011;9642;50.842;4.348;2022-07-21T08:04:46;44.35;;;28.92;;
19018;SDS011;9642;50.842;4.348;2022-07-21T08:07:12;45.72;;;28.38;;
19018;SDS011;9642;50.842;4.348;2022-07-21T08:09:38;44.88;;;28.50;;
19018;SDS011;9642;50.842;4.348;2022-07-21T08:12:05;40.70;;;27.98;;
19018;SDS011;9642;50.842;4.348;2022-07-21T08:14:31;40.83;;;28.98;;
19018;SDS011;9642;50.842;4.348;2022-07-21T08:17:04;40.47;;;28.70;;
19018;SDS011;9642;50.842;4.348;2022-07-21T08:19:31;41.67;;;27.52;;
19018;SDS011;9642;50.842;4.348;2022-07-21T08:21:59;41.03;;;27.70;;
19018;SDS011;9642;50.842;4.348;2022-07-21T08:24:26;45.95;;;31.02;;
19018;SDS011;9642;50.842;4.348;2022-07-21T08:26:53;36.35;;;26.35;;
19018;SDS011;9642;50.842;4.348;2022-07-21T08:29:20;37.20;;;27.13;;
19018;SDS011;9642;50.842;4.348;2022-07-21T08:31:47;40.95;;;27.35;;
19018;SDS011;9642;50.842;4.348;2022-07-21T08:34:13;37.17;;;26.50;;
19018;SDS011;9642;50.842;4.348;2022-07-21T08:36:39;35.20;;;25.50;;
19018;SDS011;9642;50.842;4.348;2022-07-21T08:39:05;38.40;;;26.02;;
19018;SDS011;9642;50.842;4.348;2022-07-21T08:41:31;36.15;;;25.60;;
19018;SDS011;9642;50.842;4.348;2022-07-21T08:43:57;28.38;;;22.62;;
19018;SDS011;9642;50.842;4.348;2022-07-21T08:46:24;33.75;;;23.48;;
19018;SDS011;9642;50.842;4.348;2022-07-21T08:48:50;30.75;;;22.87;;
19018;SDS011;9642;50.842;4.348;2022-07-21T08:51:17;31.65;;;23.40;;
19018;SDS011;9642;50.842;4.348;2022-07-21T08:53:46;29.95;;;22.58;;
19018;SDS011;9642;50.842;4.348;2022-07-21T08:56:19;24.85;;;18.42;;
19018;SDS011;9642;50.842;4.348;2022-07-21T08:58:45;15.35;;;13.75;;
19018;SDS011;9642;50.842;4.348;2022-07-21T09:01:11;14.73;;;12.10;;
19018;SDS011;9642;50.842;4.348;2022-07-21T09:03:37;14.73;;;11.60;;
19018;SDS011;9642;50.842;4.348;2022-07-21T09:08:41;10.77;;;9.00;;
19018;SDS011;9642;50.842;4.348;2022-07-21T09:16:33;9.38;;;8.48;;
19018;SDS011;9642;50.842;4.348;2022-07-21T09:19:06;13.18;;;8.50;;
19018;SDS011;9642;50.842;4.348;2022-07-21T09:21:40;11.32;;;9.85;;
19018;SDS011;9642;50.842;4.348;2022-07-21T09:29:40;10.13;;;8.07;;
19018;SDS011;9642;50.842;4.348;2022-07-21T09:37:41;10.68;;;7.12;;
19018;SDS011;9642;50.842;4.348;2022-07-21T09:40:11;8.23;;;6.82;;
19018;SDS011;9642;50.842;4.348;2022-07-21T09:42:40;10.25;;;6.82;;
19018;SDS011;9642;50.842;4.348;2022-07-21T09:45:13;9.27;;;6.62;;
19018;SDS011;9642;50.842;4.348;2022-07-21T09:47:40;8.57;;;7.05;;
19018;SDS011;9642;50.842;4.348;2022-07-21T09:50:09;11.48;;;7.28;;
19018;SDS011;9642;50.842;4.348;2022-07-21T09:52:46;9.43;;;7.05;;
19018;SDS011;9642;50.842;4.348;2022-07-21T09:55:15;13.57;;;6.60;;
19018;SDS011;9642;50.842;4.348;2022-07-21T09:57:42;7.20;;;6.18;;
19018;SDS011;9642;50.842;4.348;2022-07-21T10:00:13;7.35;;;6.03;;
19018;SDS011;9642;50.842;4.348;2022-07-21T10:02:43;9.25;;;6.50;;
19018;SDS011;9642;50.842;4.348;2022-07-21T10:05:10;10.65;;;5.93;;
19018;SDS011;9642;50.842;4.348;2022-07-21T10:07:45;10.95;;;6.28;;
19018;SDS011;9642;50.842;4.348;2022-07-21T10:10:14;7.40;;;6.05;;
19018;SDS011;9642;50.842;4.348;2022-07-21T10:12:41;11.07;;;6.00;;
19018;SDS011;9642;50.842;4.348;2022-07-21T10:15:08;8.35;;;6.32;;
19018;SDS011;9642;50.842;4.348;2022-07-21T10:17:35;9.70;;;6.43;;
19018;SDS011;9642;50.842;4.348;2022-07-21T10:20:18;9.07;;;7.20;;
19018;SDS011;9642;50.842;4.348;2022-07-21T10:23:05;10.27;;;6.75;;
19018;SDS011;9642;50.842;4.348;2022-07-21T10:25:37;9.93;;;6.72;;
19018;SDS011;9642;50.842;4.348;2022-07-21T10:30:55;9.95;;;6.30;;
19018;SDS011;9642;50.842;4.348;2022-07-21T10:36:10;11.55;;;7.97;;
19018;SDS011;9642;50.842;4.348;2022-07-21T10:49:52;15.77;;;8.82;;
19018;SDS011;9642;50.842;4.348;2022-07-21T10:55:13;14.77;;;8.93;;
19018;SDS011;9642;50.842;4.348;2022-07-21T11:00:52;18.77;;;9.85;;
19018;SDS011;9642;50.842;4.348;2022-07-21T11:08:39;13.23;;;7.93;;
19018;SDS011;9642;50.842;4.348;2022-07-21T11:11:24;13.23;;;7.68;;
19018;SDS011;9642;50.842;4.348;2022-07-21T11:19:30;15.10;;;7.55;;
19018;SDS011;9642;50.842;4.348;2022-07-21T11:22:15;11.85;;;6.57;;
19018;SDS011;9642;50.842;4.348;2022-07-21T11:24:48;12.45;;;7.87;;
19018;SDS011;9642;50.842;4.348;2022-07-21T11:27:24;15.27;;;7.20;;
19018;SDS011;9642;50.842;4.348;2022-07-21T11:29:52;13.45;;;7.57;;
19018;SDS011;9642;50.842;4.348;2022-07-21T11:32:23;13.95;;;7.20;;
19018;SDS011;9642;50.842;4.348;2022-07-21T11:34:59;10.73;;;7.65;;
19018;SDS011;9642;50.842;4.348;2022-07-21T11:37:30;13.80;;;7.12;;
19018;SDS011;9642;50.842;4.348;2022-07-21T11:39:58;16.67;;;7.60;;
19018;SDS011;9642;50.842;4.348;2022-07-21T11:42:25;12.65;;;7.20;;
19018;SDS011;9642;50.842;4.348;2022-07-21T11:44:52;13.02;;;7.70;;
19018;SDS011;9642;50.842;4.348;2022-07-21T11:47:19;10.43;;;7.22;;
19018;SDS011;9642;50.842;4.348;2022-07-21T11:49:54;14.43;;;7.50;;
19018;SDS011;9642;50.842;4.348;2022-07-21T11:52:31;12.60;;;7.37;;
19018;SDS011;9642;50.842;4.348;2022-07-21T11:55:03;17.35;;;7.82;;
19018;SDS011;9642;50.842;4.348;2022-07-21T11:57:31;13.70;;;7.37;;
19018;SDS011;9642;50.842;4.348;2022-07-21T11:59:59;13.77;;;7.57;;
19018;SDS011;9642;50.842;4.348;2022-07-21T12:02:25;16.05;;;6.95;;
19018;SDS011;9642;50.842;4.348;2022-07-21T12:04:57;14.25;;;6.65;;
19018;SDS011;9642;50.842;4.348;2022-07-21T12:07:34;10.50;;;5.35;;
19018;SDS011;9642;50.842;4.348;2022-07-21T12:10:10;13.02;;;6.43;;
19018;SDS011;9642;50.842;4.348;2022-07-21T12:15:16;15.40;;;6.45;;
19018;SDS011;9642;50.842;4.348;2022-07-21T12:17:58;11.70;;;6.22;;
19018;SDS011;9642;50.842;4.348;2022-07-21T12:20:33;16.80;;;6.30;;
19018;SDS011;9642;50.842;4.348;2022-07-21T12:25:55;13.82;;;6.85;;
19018;SDS011;9642;50.842;4.348;2022-07-21T12:28:45;11.80;;;6.35;;
19018;SDS011;9642;50.842;4.348;2022-07-21T12:31:13;13.88;;;6.72;;
19018;SDS011;9642;50.842;4.348;2022-07-21T12:33:41;12.85;;;6.55;;
19018;SDS011;9642;50.842;4.348;2022-07-21T12:36:08;13.48;;;7.20;;
19018;SDS011;9642;50.842;4.348;2022-07-21T12:38:42;16.77;;;6.78;;
19018;SDS011;9642;50.842;4.348;2022-07-21T12:41:12;16.20;;;6.32;;
19018;SDS011;9642;50.842;4.348;2022-07-21T12:43:39;13.93;;;5.87;;
19018;SDS011;9642;50.842;4.348;2022-07-21T12:46:09;15.50;;;6.95;;
19018;SDS011;9642;50.842;4.348;2022-07-21T12:48:39;14.90;;;6.35;;
19018;SDS011;9642;50.842;4.348;2022-07-21T12:53:48;13.52;;;6.20;;
19018;SDS011;9642;50.842;4.348;2022-07-21T12:56:20;16.00;;;7.20;;
19018;SDS011;9642;50.842;4.348;2022-07-21T12:58:48;11.15;;;6.15;;
19018;SDS011;9642;50.842;4.348;2022-07-21T13:01:15;10.68;;;5.80;;
19018;SDS011;9642;50.842;4.348;2022-07-21T13:03:43;19.25;;;7.30;;
19018;SDS011;9642;50.842;4.348;2022-07-21T13:06:09;12.32;;;6.22;;
19018;SDS011;9642;50.842;4.348;2022-07-21T13:08:40;14.18;;;6.30;;
19018;SDS011;9642;50.842;4.348;2022-07-21T13:11:07;13.43;;;5.90;;
19018;SDS011;9642;50.842;4.348;2022-07-21T13:13:38;16.90;;;6.75;;
19018;SDS011;9642;50.842;4.348;2022-07-21T13:16:04;15.05;;;5.72;;
19018;SDS011;9642;50.842;4.348;2022-07-21T13:18:31;14.68;;;5.70;;
19018;SDS011;9642;50.842;4.348;2022-07-21T13:20:57;15.02;;;5.82;;
19018;SDS011;9642;50.842;4.348;2022-07-21T13:23:23;14.77;;;6.85;;
19018;SDS011;9642;50.842;4.348;2022-07-21T13:25:49;18.90;;;6.60;;
19018;SDS011;9642;50.842;4.348;2022-07-21T13:28:16;15.02;;;6.43;;
19018;SDS011;9642;50.842;4.348;2022-07-21T13:30:44;16.52;;;6.37;;
19018;SDS011;9642;50.842;4.348;2022-07-21T13:33:12;12.50;;;6.32;;
19018;SDS011;9642;50.842;4.348;2022-07-21T13:35:41;13.55;;;6.30;;
19018;SDS011;9642;50.842;4.348;2022-07-21T13:38:08;13.75;;;6.18;;
19018;SDS011;9642;50.842;4.348;2022-07-21T13:40:35;14.35;;;6.50;;
19018;SDS011;9642;50.842;4.348;2022-07-21T13:43:02;17.65;;;6.00;;
19018;SDS011;9642;50.842;4.348;2022-07-21T13:45:32;13.15;;;6.32;;
19018;SDS011;9642;50.842;4.348;2022-07-21T13:48:01;17.00;;;6.87;;
19018;SDS011;9642;50.842;4.348;2022-07-21T13:50:27;17.87;;;6.00;;
19018;SDS011;9642;50.842;4.348;2022-07-21T13:52:53;17.90;;;6.78;;
19018;SDS011;9642;50.842;4.348;2022-07-21T13:55:19;15.52;;;6.12;;
19018;SDS011;9642;50.842;4.348;2022-07-21T13:57:44;19.37;;;6.82;;
19018;SDS011;9642;50.842;4.348;2022-07-21T14:00:10;13.30;;;6.20;;
19018;SDS011;9642;50.842;4.348;2022-07-21T14:02:37;16.52;;;6.82;;
19018;SDS011;9642;50.842;4.348;2022-07-21T14:05:04;15.63;;;5.85;;
19018;SDS011;9642;50.842;4.348;2022-07-21T14:07:33;16.65;;;6.00;;
19018;SDS011;9642;50.842;4.348;2022-07-21T14:09:59;24.05;;;6.65;;
19018;SDS011;9642;50.842;4.348;2022-07-21T14:12:25;18.77;;;6.93;;
19018;SDS011;9642;50.842;4.348;2022-07-21T14:14:51;24.80;;;6.00;;
19018;SDS011;9642;50.842;4.348;2022-07-21T14:17:17;23.58;;;9.00;;
19018;SDS011;9642;50.842;4.348;2022-07-21T14:19:44;20.00;;;9.32;;
19018;SDS011;9642;50.842;4.348;2022-07-21T14:22:12;16.95;;;6.22;;
19018;SDS011;9642;50.842;4.348;2022-07-21T14:24:39;15.65;;;6.35;;
19018;SDS011;9642;50.842;4.348;2022-07-21T14:27:23;14.15;;;6.07;;
19018;SDS011;9642;50.842;4.348;2022-07-21T14:29:49;14.55;;;6.22;;
19018;SDS011;9642;50.842;4.348;2022-07-21T14:32:17;13.27;;;6.25;;
19018;SDS011;9642;50.842;4.348;2022-07-21T14:34:53;17.15;;;6.07;;
19018;SDS011;9642;50.842;4.348;2022-07-21T14:37:20;16.33;;;5.95;;
19018;SDS011;9642;50.842;4.348;2022-07-21T14:39:49;11.70;;;5.95;;
19018;SDS011;9642;50.842;4.348;2022-07-21T14:42:15;15.77;;;5.47;;
19018;SDS011;9642;50.842;4.348;2022-07-21T14:44:43;13.07;;;5.53;;
19018;SDS011;9642;50.842;4.348;2022-07-21T14:47:10;14.02;;;5.70;;
19018;SDS011;9642;50.842;4.348;2022-07-21T14:49:36;14.60;;;5.32;;
19018;SDS011;9642;50.842;4.348;2022-07-21T14:52:03;14.93;;;5.43;;
19018;SDS011;9642;50.842;4.348;2022-07-21T14:54:29;12.88;;;5.45;;
19018;SDS011;9642;50.842;4.348;2022-07-21T14:56:57;16.40;;;4.90;;
19018;SDS011;9642;50.842;4.348;2022-07-21T14:59:23;14.10;;;4.95;;
19018;SDS011;9642;50.842;4.348;2022-07-21T15:01:49;11.45;;;4.90;;
19018;SDS011;9642;50.842;4.348;2022-07-21T15:04:15;12.23;;;4.97;;
19018;SDS011;9642;50.842;4.348;2022-07-21T15:06:41;15.07;;;5.40;;
19018;SDS011;9642;50.842;4.348;2022-07-21T15:09:08;12.93;;;5.30;;
19018;SDS011;9642;50.842;4.348;2022-07-21T15:11:34;11.90;;;5.15;;
19018;SDS011;9642;50.842;4.348;2022-07-21T15:14:00;12.32;;;5.55;;
19018;SDS011;9642;50.842;4.348;2022-07-21T15:16:26;10.43;;;5.22;;
19018;SDS011;9642;50.842;4.348;2022-07-21T15:18:52;14.60;;;6.50;;
19018;SDS011;9642;50.842;4.348;2022-07-21T15:21:18;17.48;;;7.22;;
19018;SDS011;9642;50.842;4.348;2022-07-21T15:23:44;10.63;;;5.40;;
19018;SDS011;9642;50.842;4.348;2022-07-21T15:26:09;22.05;;;12.00;;
19018;SDS011;9642;50.842;4.348;2022-07-21T15:28:36;14.07;;;4.90;;
19018;SDS011;9642;50.842;4.348;2022-07-21T15:31:04;11.12;;;4.35;;
19018;SDS011;9642;50.842;4.348;2022-07-21T15:33:30;13.68;;;4.90;;
19018;SDS011;9642;50.842;4.348;2022-07-21T15:35:56;17.02;;;4.90;;
19018;SDS011;9642;50.842;4.348;2022-07-21T15:38:22;11.55;;;4.47;;
19018;SDS011;9642;50.842;4.348;2022-07-21T15:40:50;11.80;;;4.32;;
19018;SDS011;9642;50.842;4.348;2022-07-21T15:43:17;17.67;;;4.85;;
19018;SDS011;9642;50.842;4.348;2022-07-21T15:45:43;13.27;;;4.87;;